Hyden, Kentucky
Current Conditions -  °F | °C
As of 3:15 AM on Sunday 23 Nov 2014 (Local Time) from KI35 Reporting Station
Clear Clear  
Wind Chill:   Ceiling: Unl
Heat Index:   Visibility: 10mi
Dew Point: -1°   Wind: 3mph
Humidity: 57%   Direction: 90°E
Pressure: 30.13"   Gusts: NA
Location:  37.16°N, 83.37°W
Report Text: KI35 230815Z AUTO 09003KT 10SM CLR 07/M01 A3013 RMK AO1
Loading
Personal Weather Stations






























Interactive Weather Map New forecast layout! Learn more

10-Day Weather Forecast

Advertisements
Track Severe Weather on mobile